sensor_id;sensor_type;location;lat;lon;timestamp;P1;durP1;ratioP1;P2;durP2;ratioP2
17253;SDS011;32542;52.832;13.816;2023-07-13T00:02:25;3.13;;;1.50;;
17253;SDS011;32542;52.832;13.816;2023-07-13T00:05:30;2.38;;;1.60;;
17253;SDS011;32542;52.832;13.816;2023-07-13T00:08:33;2.30;;;1.30;;
17253;SDS011;32542;52.832;13.816;2023-07-13T00:11:37;3.10;;;1.40;;
17253;SDS011;32542;52.832;13.816;2023-07-13T00:14:40;3.20;;;1.50;;
17253;SDS011;32542;52.832;13.816;2023-07-13T00:17:43;1.38;;;1.20;;
17253;SDS011;32542;52.832;13.816;2023-07-13T00:20:48;2.88;;;1.77;;
17253;SDS011;32542;52.832;13.816;2023-07-13T00:23:51;1.83;;;1.20;;
17253;SDS011;32542;52.832;13.816;2023-07-13T00:26:54;3.15;;;1.70;;
17253;SDS011;32542;52.832;13.816;2023-07-13T00:29:57;3.10;;;1.40;;
17253;SDS011;32542;52.832;13.816;2023-07-13T00:33:00;2.28;;;1.58;;
17253;SDS011;32542;52.832;13.816;2023-07-13T00:36:19;3.92;;;1.58;;
17253;SDS011;32542;52.832;13.816;2023-07-13T00:39:23;3.42;;;1.70;;
17253;SDS011;32542;52.832;13.816;2023-07-13T00:42:26;3.53;;;1.92;;
17253;SDS011;32542;52.832;13.816;2023-07-13T00:49:21;1.90;;;1.30;;
17253;SDS011;32542;52.832;13.816;2023-07-13T00:52:26;4.78;;;1.73;;
17253;SDS011;32542;52.832;13.816;2023-07-13T00:55:30;2.08;;;1.50;;
17253;SDS011;32542;52.832;13.816;2023-07-13T00:58:33;4.07;;;1.73;;
17253;SDS011;32542;52.832;13.816;2023-07-13T01:01:37;3.05;;;1.42;;
17253;SDS011;32542;52.832;13.816;2023-07-13T01:04:41;4.15;;;1.33;;
17253;SDS011;32542;52.832;13.816;2023-07-13T01:07:47;2.88;;;1.52;;
17253;SDS011;32542;52.832;13.816;2023-07-13T01:10:53;3.17;;;1.48;;
17253;SDS011;32542;52.832;13.816;2023-07-13T01:13:56;2.75;;;1.55;;
17253;SDS011;32542;52.832;13.816;2023-07-13T01:17:00;2.88;;;1.13;;
17253;SDS011;32542;52.832;13.816;2023-07-13T01:20:06;4.72;;;1.63;;
17253;SDS011;32542;52.832;13.816;2023-07-13T01:23:12;1.58;;;1.23;;
17253;SDS011;32542;52.832;13.816;2023-07-13T01:26:15;2.90;;;1.35;;
17253;SDS011;32542;52.832;13.816;2023-07-13T01:29:18;2.38;;;1.30;;
17253;SDS011;32542;52.832;13.816;2023-07-13T01:32:23;3.13;;;1.58;;
17253;SDS011;32542;52.832;13.816;2023-07-13T01:35:29;2.38;;;1.63;;
17253;SDS011;32542;52.832;13.816;2023-07-13T01:38:34;3.55;;;1.55;;
17253;SDS011;32542;52.832;13.816;2023-07-13T01:41:38;2.50;;;1.67;;
17253;SDS011;32542;52.832;13.816;2023-07-13T01:44:41;2.50;;;1.40;;
17253;SDS011;32542;52.832;13.816;2023-07-13T01:47:44;2.65;;;1.58;;
17253;SDS011;32542;52.832;13.816;2023-07-13T01:50:47;3.63;;;1.80;;
17253;SDS011;32542;52.832;13.816;2023-07-13T01:53:52;1.67;;;1.10;;
17253;SDS011;32542;52.832;13.816;2023-07-13T01:56:57;1.75;;;1.52;;
17253;SDS011;32542;52.832;13.816;2023-07-13T02:00:01;2.10;;;1.40;;
17253;SDS011;32542;52.832;13.816;2023-07-13T02:03:15;1.95;;;1.40;;
17253;SDS011;32542;52.832;13.816;2023-07-13T02:06:19;1.58;;;1.10;;
17253;SDS011;32542;52.832;13.816;2023-07-13T02:09:24;3.67;;;1.30;;
17253;SDS011;32542;52.832;13.816;2023-07-13T02:12:26;2.65;;;1.35;;
17253;SDS011;32542;52.832;13.816;2023-07-13T02:15:29;2.70;;;1.48;;
17253;SDS011;32542;52.832;13.816;2023-07-13T02:18:32;2.33;;;1.70;;
17253;SDS011;32542;52.832;13.816;2023-07-13T02:21:35;3.30;;;1.90;;
17253;SDS011;32542;52.832;13.816;2023-07-13T02:24:39;2.70;;;1.58;;
17253;SDS011;32542;52.832;13.816;2023-07-13T02:27:42;1.80;;;1.40;;
17253;SDS011;32542;52.832;13.816;2023-07-13T02:30:45;3.35;;;1.30;;
17253;SDS011;32542;52.832;13.816;2023-07-13T02:33:48;2.70;;;1.48;;
17253;SDS011;32542;52.832;13.816;2023-07-13T02:36:51;4.15;;;1.52;;
17253;SDS011;32542;52.832;13.816;2023-07-13T02:39:56;3.05;;;1.60;;
17253;SDS011;32542;52.832;13.816;2023-07-13T02:42:59;1.85;;;1.38;;
17253;SDS011;32542;52.832;13.816;2023-07-13T02:46:01;2.08;;;1.50;;
17253;SDS011;32542;52.832;13.816;2023-07-13T02:49:09;2.40;;;1.50;;
17253;SDS011;32542;52.832;13.816;2023-07-13T02:52:12;2.95;;;1.70;;
17253;SDS011;32542;52.832;13.816;2023-07-13T02:55:17;2.08;;;1.50;;
17253;SDS011;32542;52.832;13.816;2023-07-13T02:58:20;2.75;;;1.23;;
17253;SDS011;32542;52.832;13.816;2023-07-13T03:01:24;3.10;;;1.40;;
17253;SDS011;32542;52.832;13.816;2023-07-13T03:04:27;1.90;;;1.40;;
17253;SDS011;32542;52.832;13.816;2023-07-13T03:07:30;3.08;;;1.40;;
17253;SDS011;32542;52.832;13.816;2023-07-13T03:10:35;3.25;;;1.52;;
17253;SDS011;32542;52.832;13.816;2023-07-13T03:13:40;3.00;;;1.80;;
17253;SDS011;32542;52.832;13.816;2023-07-13T03:16:45;2.83;;;1.65;;
17253;SDS011;32542;52.832;13.816;2023-07-13T03:19:48;3.22;;;1.65;;
17253;SDS011;32542;52.832;13.816;2023-07-13T03:22:52;2.50;;;1.42;;
17253;SDS011;32542;52.832;13.816;2023-07-13T03:26:04;4.75;;;1.40;;
17253;SDS011;32542;52.832;13.816;2023-07-13T03:29:09;2.88;;;1.70;;
17253;SDS011;32542;52.832;13.816;2023-07-13T03:32:12;2.92;;;1.50;;
17253;SDS011;32542;52.832;13.816;2023-07-13T03:35:15;2.58;;;1.60;;
17253;SDS011;32542;52.832;13.816;2023-07-13T03:38:18;2.30;;;1.67;;
17253;SDS011;32542;52.832;13.816;2023-07-13T03:41:23;2.40;;;1.45;;
17253;SDS011;32542;52.832;13.816;2023-07-13T03:44:28;2.75;;;1.52;;
17253;SDS011;32542;52.832;13.816;2023-07-13T03:47:31;3.88;;;1.60;;
17253;SDS011;32542;52.832;13.816;2023-07-13T03:50:37;2.92;;;1.52;;
17253;SDS011;32542;52.832;13.816;2023-07-13T03:53:41;3.15;;;1.60;;
17253;SDS011;32542;52.832;13.816;2023-07-13T03:56:48;2.53;;;1.70;;
17253;SDS011;32542;52.832;13.816;2023-07-13T03:59:53;2.70;;;1.80;;
17253;SDS011;32542;52.832;13.816;2023-07-13T04:02:56;4.07;;;1.35;;
17253;SDS011;32542;52.832;13.816;2023-07-13T04:05:59;2.65;;;1.70;;
17253;SDS011;32542;52.832;13.816;2023-07-13T04:09:03;3.42;;;2.15;;
17253;SDS011;32542;52.832;13.816;2023-07-13T04:12:09;2.50;;;1.42;;
17253;SDS011;32542;52.832;13.816;2023-07-13T04:15:12;3.05;;;1.77;;
17253;SDS011;32542;52.832;13.816;2023-07-13T04:18:15;2.25;;;1.60;;
17253;SDS011;32542;52.832;13.816;2023-07-13T04:21:18;2.60;;;1.48;;
17253;SDS011;32542;52.832;13.816;2023-07-13T04:24:21;3.05;;;1.73;;
17253;SDS011;32542;52.832;13.816;2023-07-13T04:27:25;2.10;;;1.50;;
17253;SDS011;32542;52.832;13.816;2023-07-13T04:30:30;2.78;;;1.73;;
17253;SDS011;32542;52.832;13.816;2023-07-13T04:33:33;3.08;;;1.67;;
17253;SDS011;32542;52.832;13.816;2023-07-13T04:36:36;2.42;;;1.70;;
17253;SDS011;32542;52.832;13.816;2023-07-13T04:39:39;2.20;;;1.50;;
17253;SDS011;32542;52.832;13.816;2023-07-13T04:42:43;2.10;;;1.70;;
17253;SDS011;32542;52.832;13.816;2023-07-13T04:45:46;3.08;;;1.88;;
17253;SDS011;32542;52.832;13.816;2023-07-13T04:48:49;1.75;;;1.65;;
17253;SDS011;32542;52.832;13.816;2023-07-13T04:51:55;4.97;;;2.13;;
17253;SDS011;32542;52.832;13.816;2023-07-13T04:54:57;6.28;;;2.15;;
17253;SDS011;32542;52.832;13.816;2023-07-13T04:58:02;2.42;;;1.60;;
17253;SDS011;32542;52.832;13.816;2023-07-13T05:01:06;2.92;;;1.67;;
17253;SDS011;32542;52.832;13.816;2023-07-13T05:04:10;2.30;;;1.67;;
17253;SDS011;32542;52.832;13.816;2023-07-13T05:07:13;3.10;;;1.80;;
17253;SDS011;32542;52.832;13.816;2023-07-13T05:10:16;3.50;;;1.80;;
17253;SDS011;32542;52.832;13.816;2023-07-13T05:13:21;3.90;;;1.58;;
17253;SDS011;32542;52.832;13.816;2023-07-13T05:16:27;3.08;;;1.75;;
17253;SDS011;32542;52.832;13.816;2023-07-13T05:19:31;2.80;;;1.80;;
17253;SDS011;32542;52.832;13.816;2023-07-13T05:22:34;2.88;;;1.60;;
17253;SDS011;32542;52.832;13.816;2023-07-13T05:25:37;2.50;;;1.67;;
17253;SDS011;32542;52.832;13.816;2023-07-13T05:28:41;3.83;;;1.70;;
17253;SDS011;32542;52.832;13.816;2023-07-13T05:31:45;2.00;;;1.48;;
17253;SDS011;32542;52.832;13.816;2023-07-13T05:34:48;2.95;;;1.85;;
17253;SDS011;32542;52.832;13.816;2023-07-13T05:37:50;2.47;;;1.80;;
17253;SDS011;32542;52.832;13.816;2023-07-13T05:40:54;3.85;;;1.80;;
17253;SDS011;32542;52.832;13.816;2023-07-13T05:43:59;2.65;;;1.77;;
17253;SDS011;32542;52.832;13.816;2023-07-13T05:47:01;2.85;;;1.70;;
17253;SDS011;32542;52.832;13.816;2023-07-13T05:50:06;4.70;;;1.75;;
17253;SDS011;32542;52.832;13.816;2023-07-13T05:53:10;2.35;;;1.55;;
17253;SDS011;32542;52.832;13.816;2023-07-13T05:56:13;1.95;;;1.58;;
17253;SDS011;32542;52.832;13.816;2023-07-13T05:59:18;2.13;;;1.50;;
17253;SDS011;32542;52.832;13.816;2023-07-13T06:02:21;3.92;;;1.90;;
17253;SDS011;32542;52.832;13.816;2023-07-13T06:05:24;2.88;;;1.70;;
17253;SDS011;32542;52.832;13.816;2023-07-13T06:08:28;3.50;;;1.60;;
17253;SDS011;32542;52.832;13.816;2023-07-13T06:11:31;3.13;;;1.55;;
17253;SDS011;32542;52.832;13.816;2023-07-13T06:14:35;2.03;;;1.33;;
17253;SDS011;32542;52.832;13.816;2023-07-13T06:17:38;1.75;;;1.52;;
17253;SDS011;32542;52.832;13.816;2023-07-13T06:20:42;1.88;;;1.27;;
17253;SDS011;32542;52.832;13.816;2023-07-13T06:23:45;3.45;;;1.77;;
17253;SDS011;32542;52.832;13.816;2023-07-13T06:26:50;1.48;;;1.38;;
17253;SDS011;32542;52.832;13.816;2023-07-13T06:29:54;3.75;;;1.50;;
17253;SDS011;32542;52.832;13.816;2023-07-13T06:32:57;4.57;;;1.60;;
17253;SDS011;32542;52.832;13.816;2023-07-13T06:36:00;3.17;;;1.58;;
17253;SDS011;32542;52.832;13.816;2023-07-13T06:39:04;2.05;;;1.27;;
17253;SDS011;32542;52.832;13.816;2023-07-13T06:42:08;2.80;;;1.40;;
17253;SDS011;32542;52.832;13.816;2023-07-13T06:45:16;3.30;;;1.52;;
17253;SDS011;32542;52.832;13.816;2023-07-13T06:48:19;2.47;;;1.35;;
17253;SDS011;32542;52.832;13.816;2023-07-13T06:51:22;2.30;;;1.33;;
17253;SDS011;32542;52.832;13.816;2023-07-13T06:54:25;2.75;;;1.38;;
17253;SDS011;32542;52.832;13.816;2023-07-13T06:57:29;2.15;;;1.27;;
17253;SDS011;32542;52.832;13.816;2023-07-13T07:00:33;1.45;;;1.20;;
17253;SDS011;32542;52.832;13.816;2023-07-13T07:03:36;1.35;;;1.25;;
17253;SDS011;32542;52.832;13.816;2023-07-13T07:06:39;4.80;;;1.70;;
17253;SDS011;32542;52.832;13.816;2023-07-13T07:09:42;1.42;;;1.33;;
17253;SDS011;32542;52.832;13.816;2023-07-13T07:12:45;3.40;;;1.20;;
17253;SDS011;32542;52.832;13.816;2023-07-13T07:15:50;2.70;;;1.10;;
17253;SDS011;32542;52.832;13.816;2023-07-13T07:18:54;2.08;;;1.30;;
17253;SDS011;32542;52.832;13.816;2023-07-13T07:21:57;2.25;;;1.30;;
17253;SDS011;32542;52.832;13.816;2023-07-13T07:25:00;2.20;;;1.30;;
17253;SDS011;32542;52.832;13.816;2023-07-13T07:28:03;1.77;;;1.10;;
17253;SDS011;32542;52.832;13.816;2023-07-13T07:31:10;3.95;;;1.40;;
17253;SDS011;32542;52.832;13.816;2023-07-13T07:34:16;2.22;;;1.40;;
17253;SDS011;32542;52.832;13.816;2023-07-13T07:37:19;2.30;;;1.30;;
17253;SDS011;32542;52.832;13.816;2023-07-13T07:40:24;3.25;;;1.50;;
17253;SDS011;32542;52.832;13.816;2023-07-13T07:43:30;2.45;;;1.23;;
17253;SDS011;32542;52.832;13.816;2023-07-13T07:46:35;2.17;;;1.23;;
17253;SDS011;32542;52.832;13.816;2023-07-13T07:49:38;2.55;;;1.50;;
17253;SDS011;32542;52.832;13.816;2023-07-13T07:52:41;1.58;;;1.30;;
17253;SDS011;32542;52.832;13.816;2023-07-13T07:55:45;3.08;;;1.55;;
17253;SDS011;32542;52.832;13.816;2023-07-13T07:58:51;1.80;;;1.27;;
17253;SDS011;32542;52.832;13.816;2023-07-13T08:01:59;2.00;;;1.20;;
17253;SDS011;32542;52.832;13.816;2023-07-13T08:05:07;2.25;;;1.40;;
17253;SDS011;32542;52.832;13.816;2023-07-13T08:08:13;1.83;;;1.25;;
17253;SDS011;32542;52.832;13.816;2023-07-13T08:11:16;3.38;;;1.20;;
17253;SDS011;32542;52.832;13.816;2023-07-13T08:14:23;2.22;;;1.40;;
17253;SDS011;32542;52.832;13.816;2023-07-13T08:17:40;2.10;;;1.25;;
17253;SDS011;32542;52.832;13.816;2023-07-13T08:20:45;2.67;;;1.08;;
17253;SDS011;32542;52.832;13.816;2023-07-13T08:23:48;3.78;;;1.30;;
17253;SDS011;32542;52.832;13.816;2023-07-13T08:26:51;2.78;;;1.38;;
17253;SDS011;32542;52.832;13.816;2023-07-13T08:29:54;2.28;;;1.20;;
17253;SDS011;32542;52.832;13.816;2023-07-13T08:32:58;1.98;;;1.15;;
17253;SDS011;32542;52.832;13.816;2023-07-13T08:36:02;2.53;;;1.10;;
17253;SDS011;32542;52.832;13.816;2023-07-13T08:39:06;2.97;;;1.30;;
17253;SDS011;32542;52.832;13.816;2023-07-13T08:42:12;2.08;;;1.10;;
17253;SDS011;32542;52.832;13.816;2023-07-13T08:45:22;2.00;;;0.90;;
17253;SDS011;32542;52.832;13.816;2023-07-13T08:48:28;1.90;;;0.98;;
17253;SDS011;32542;52.832;13.816;2023-07-13T08:51:38;3.38;;;1.27;;
17253;SDS011;32542;52.832;13.816;2023-07-13T08:54:45;4.47;;;1.35;;
17253;SDS011;32542;52.832;13.816;2023-07-13T08:57:53;2.88;;;1.00;;
17253;SDS011;32542;52.832;13.816;2023-07-13T09:01:03;3.75;;;1.10;;
17253;SDS011;32542;52.832;13.816;2023-07-13T09:04:16;1.77;;;1.00;;
17253;SDS011;32542;52.832;13.816;2023-07-13T09:07:26;0.90;;;0.90;;
17253;SDS011;32542;52.832;13.816;2023-07-13T09:10:40;2.05;;;1.10;;
17253;SDS011;32542;52.832;13.816;2023-07-13T09:13:47;1.70;;;0.98;;
17253;SDS011;32542;52.832;13.816;2023-07-13T09:16:59;2.13;;;1.10;;
17253;SDS011;32542;52.832;13.816;2023-07-13T09:20:09;1.85;;;1.05;;
17253;SDS011;32542;52.832;13.816;2023-07-13T09:23:21;1.17;;;0.90;;
17253;SDS011;32542;52.832;13.816;2023-07-13T09:26:26;2.90;;;1.00;;
17253;SDS011;32542;52.832;13.816;2023-07-13T09:29:32;3.17;;;1.00;;
17253;SDS011;32542;52.832;13.816;2023-07-13T09:32:37;2.25;;;1.10;;
17253;SDS011;32542;52.832;13.816;2023-07-13T09:35:43;1.30;;;0.85;;
17253;SDS011;32542;52.832;13.816;2023-07-13T09:38:46;2.00;;;1.30;;
17253;SDS011;32542;52.832;13.816;2023-07-13T09:41:51;1.20;;;1.10;;
17253;SDS011;32542;52.832;13.816;2023-07-13T09:45:00;2.08;;;1.05;;
17253;SDS011;32542;52.832;13.816;2023-07-13T09:48:05;2.08;;;0.90;;
17253;SDS011;32542;52.832;13.816;2023-07-13T09:51:13;1.95;;;1.02;;
17253;SDS011;32542;52.832;13.816;2023-07-13T09:54:20;1.23;;;1.02;;
17253;SDS011;32542;52.832;13.816;2023-07-13T09:57:26;5.45;;;1.10;;
17253;SDS011;32542;52.832;13.816;2023-07-13T10:00:54;2.65;;;1.10;;
17253;SDS011;32542;52.832;13.816;2023-07-13T10:03:59;2.03;;;0.90;;
17253;SDS011;32542;52.832;13.816;2023-07-13T10:07:06;4.82;;;1.00;;
17253;SDS011;32542;52.832;13.816;2023-07-13T10:10:29;1.90;;;0.90;;
17253;SDS011;32542;52.832;13.816;2023-07-13T10:13:33;3.03;;;1.10;;
17253;SDS011;32542;52.832;13.816;2023-07-13T10:16:39;1.15;;;0.90;;
17253;SDS011;32542;52.832;13.816;2023-07-13T10:19:44;1.88;;;1.10;;
17253;SDS011;32542;52.832;13.816;2023-07-13T10:22:52;1.45;;;1.00;;
17253;SDS011;32542;52.832;13.816;2023-07-13T10:26:00;2.40;;;1.05;;
17253;SDS011;32542;52.832;13.816;2023-07-13T10:29:04;1.70;;;0.88;;
17253;SDS011;32542;52.832;13.816;2023-07-13T10:32:12;2.92;;;1.00;;
17253;SDS011;32542;52.832;13.816;2023-07-13T10:35:16;1.40;;;0.90;;
17253;SDS011;32542;52.832;13.816;2023-07-13T10:38:23;1.65;;;0.90;;
17253;SDS011;32542;52.832;13.816;2023-07-13T10:41:29;1.10;;;1.00;;
17253;SDS011;32542;52.832;13.816;2023-07-13T10:44:36;3.13;;;1.20;;
17253;SDS011;32542;52.832;13.816;2023-07-13T10:47:39;2.20;;;1.00;;
17253;SDS011;32542;52.832;13.816;2023-07-13T10:50:44;1.17;;;1.02;;
17253;SDS011;32542;52.832;13.816;2023-07-13T10:57:21;1.67;;;1.00;;
17253;SDS011;32542;52.832;13.816;2023-07-13T11:00:24;3.88;;;1.10;;
17253;SDS011;32542;52.832;13.816;2023-07-13T11:03:27;3.22;;;1.20;;
17253;SDS011;32542;52.832;13.816;2023-07-13T11:06:34;1.77;;;1.10;;
17253;SDS011;32542;52.832;13.816;2023-07-13T11:09:42;1.42;;;1.10;;
17253;SDS011;32542;52.832;13.816;2023-07-13T11:12:50;1.92;;;1.10;;
17253;SDS011;32542;52.832;13.816;2023-07-13T11:15:54;1.67;;;1.10;;
17253;SDS011;32542;52.832;13.816;2023-07-13T11:19:08;1.70;;;1.10;;
17253;SDS011;32542;52.832;13.816;2023-07-13T11:22:41;2.75;;;1.25;;
17253;SDS011;32542;52.832;13.816;2023-07-13T11:25:47;2.03;;;1.05;;
17253;SDS011;32542;52.832;13.816;2023-07-13T11:28:50;1.50;;;1.00;;
17253;SDS011;32542;52.832;13.816;2023-07-13T11:31:54;1.63;;;1.20;;
17253;SDS011;32542;52.832;13.816;2023-07-13T11:34:59;2.95;;;1.20;;
17253;SDS011;32542;52.832;13.816;2023-07-13T11:38:02;2.33;;;1.05;;
17253;SDS011;32542;52.832;13.816;2023-07-13T11:41:15;1.83;;;1.05;;
17253;SDS011;32542;52.832;13.816;2023-07-13T11:44:21;1.25;;;1.05;;
17253;SDS011;32542;52.832;13.816;2023-07-13T11:47:25;1.55;;;1.23;;
17253;SDS011;32542;52.832;13.816;2023-07-13T11:50:29;1.60;;;1.02;;
17253;SDS011;32542;52.832;13.816;2023-07-13T11:53:35;3.40;;;1.20;;
17253;SDS011;32542;52.832;13.816;2023-07-13T11:56:43;3.10;;;1.27;;
17253;SDS011;32542;52.832;13.816;2023-07-13T11:59:48;3.55;;;1.38;;
17253;SDS011;32542;52.832;13.816;2023-07-13T12:02:54;2.00;;;1.27;;
17253;SDS011;32542;52.832;13.816;2023-07-13T12:06:01;1.73;;;1.27;;
17253;SDS011;32542;52.832;13.816;2023-07-13T12:09:10;2.65;;;1.35;;
17253;SDS011;32542;52.832;13.816;2023-07-13T12:12:17;3.28;;;1.40;;
17253;SDS011;32542;52.832;13.816;2023-07-13T12:15:21;2.05;;;1.52;;
17253;SDS011;32542;52.832;13.816;2023-07-13T12:18:28;2.03;;;1.50;;
17253;SDS011;32542;52.832;13.816;2023-07-13T12:21:33;5.10;;;1.50;;
17253;SDS011;32542;52.832;13.816;2023-07-13T12:24:40;2.00;;;1.25;;
17253;SDS011;32542;52.832;13.816;2023-07-13T12:27:48;1.50;;;1.40;;
17253;SDS011;32542;52.832;13.816;2023-07-13T12:30:51;5.43;;;1.95;;
17253;SDS011;32542;52.832;13.816;2023-07-13T12:34:02;3.97;;;1.55;;
17253;SDS011;32542;52.832;13.816;2023-07-13T12:37:09;4.35;;;1.75;;
17253;SDS011;32542;52.832;13.816;2023-07-13T12:40:15;3.55;;;1.50;;
17253;SDS011;32542;52.832;13.816;2023-07-13T12:43:22;3.35;;;1.55;;
17253;SDS011;32542;52.832;13.816;2023-07-13T12:46:26;3.85;;;1.60;;
17253;SDS011;32542;52.832;13.816;2023-07-13T12:49:31;1.67;;;1.30;;
17253;SDS011;32542;52.832;13.816;2023-07-13T12:52:36;3.55;;;1.60;;
17253;SDS011;32542;52.832;13.816;2023-07-13T12:55:40;4.47;;;1.70;;
17253;SDS011;32542;52.832;13.816;2023-07-13T12:58:47;3.10;;;1.60;;
17253;SDS011;32542;52.832;13.816;2023-07-13T13:01:56;1.80;;;1.42;;
17253;SDS011;32542;52.832;13.816;2023-07-13T13:04:59;3.00;;;1.50;;
17253;SDS011;32542;52.832;13.816;2023-07-13T13:08:02;2.60;;;1.35;;
17253;SDS011;32542;52.832;13.816;2023-07-13T13:11:06;3.95;;;1.60;;
17253;SDS011;32542;52.832;13.816;2023-07-13T13:14:10;3.28;;;1.52;;
17253;SDS011;32542;52.832;13.816;2023-07-13T13:17:16;3.75;;;1.83;;
17253;SDS011;32542;52.832;13.816;2023-07-13T13:20:22;5.18;;;1.70;;
17253;SDS011;32542;52.832;13.816;2023-07-13T13:23:27;6.15;;;1.75;;
17253;SDS011;32542;52.832;13.816;2023-07-13T13:26:30;3.40;;;1.58;;
17253;SDS011;32542;52.832;13.816;2023-07-13T13:29:36;3.13;;;1.70;;
17253;SDS011;32542;52.832;13.816;2023-07-13T13:32:42;2.58;;;1.77;;
17253;SDS011;32542;52.832;13.816;2023-07-13T13:35:48;2.88;;;1.90;;
17253;SDS011;32542;52.832;13.816;2023-07-13T13:38:51;4.57;;;1.90;;
17253;SDS011;32542;52.832;13.816;2023-07-13T13:41:54;6.47;;;2.22;;
17253;SDS011;32542;52.832;13.816;2023-07-13T13:44:58;3.60;;;1.50;;
17253;SDS011;32542;52.832;13.816;2023-07-13T13:48:01;4.40;;;1.95;;
17253;SDS011;32542;52.832;13.816;2023-07-13T13:51:13;4.80;;;1.83;;
17253;SDS011;32542;52.832;13.816;2023-07-13T13:54:18;3.45;;;1.77;;
17253;SDS011;32542;52.832;13.816;2023-07-13T13:57:22;3.08;;;1.70;;
17253;SDS011;32542;52.832;13.816;2023-07-13T14:00:28;3.30;;;1.75;;
17253;SDS011;32542;52.832;13.816;2023-07-13T14:03:32;5.43;;;1.77;;
17253;SDS011;32542;52.832;13.816;2023-07-13T14:06:34;3.45;;;1.90;;
17253;SDS011;32542;52.832;13.816;2023-07-13T14:09:39;4.22;;;1.83;;
17253;SDS011;32542;52.832;13.816;2023-07-13T14:12:42;3.60;;;2.10;;
17253;SDS011;32542;52.832;13.816;2023-07-13T14:15:48;4.00;;;1.67;;
17253;SDS011;32542;52.832;13.816;2023-07-13T14:18:52;4.57;;;2.00;;
17253;SDS011;32542;52.832;13.816;2023-07-13T14:21:55;3.53;;;1.83;;
17253;SDS011;32542;52.832;13.816;2023-07-13T14:24:58;4.30;;;1.98;;
17253;SDS011;32542;52.832;13.816;2023-07-13T14:28:04;4.43;;;1.80;;
17253;SDS011;32542;52.832;13.816;2023-07-13T14:31:22;2.63;;;1.90;;
17253;SDS011;32542;52.832;13.816;2023-07-13T14:34:31;3.50;;;1.77;;
17253;SDS011;32542;52.832;13.816;2023-07-13T14:37:34;4.40;;;1.90;;
17253;SDS011;32542;52.832;13.816;2023-07-13T14:40:38;3.55;;;1.92;;
17253;SDS011;32542;52.832;13.816;2023-07-13T14:43:43;4.75;;;2.03;;
17253;SDS011;32542;52.832;13.816;2023-07-13T14:46:47;5.47;;;2.08;;
17253;SDS011;32542;52.832;13.816;2023-07-13T14:49:52;3.70;;;2.28;;
17253;SDS011;32542;52.832;13.816;2023-07-13T14:52:55;6.35;;;2.15;;
17253;SDS011;32542;52.832;13.816;2023-07-13T14:55:58;2.47;;;1.90;;
17253;SDS011;32542;52.832;13.816;2023-07-13T14:59:01;4.55;;;2.40;;
17253;SDS011;32542;52.832;13.816;2023-07-13T15:02:09;5.88;;;1.98;;
17253;SDS011;32542;52.832;13.816;2023-07-13T15:05:19;3.00;;;1.90;;
17253;SDS011;32542;52.832;13.816;2023-07-13T15:08:24;3.30;;;1.90;;
17253;SDS011;32542;52.832;13.816;2023-07-13T15:11:27;3.95;;;1.88;;
17253;SDS011;32542;52.832;13.816;2023-07-13T15:14:30;3.08;;;1.70;;
17253;SDS011;32542;52.832;13.816;2023-07-13T15:17:36;3.88;;;1.63;;
17253;SDS011;32542;52.832;13.816;2023-07-13T15:20:40;4.03;;;1.85;;
17253;SDS011;32542;52.832;13.816;2023-07-13T15:23:43;2.83;;;1.70;;
17253;SDS011;32542;52.832;13.816;2023-07-13T15:26:46;3.05;;;2.40;;
17253;SDS011;32542;52.832;13.816;2023-07-13T15:29:50;2.80;;;1.95;;
17253;SDS011;32542;52.832;13.816;2023-07-13T15:32:55;4.68;;;1.50;;
17253;SDS011;32542;52.832;13.816;2023-07-13T15:35:59;4.55;;;1.50;;
17253;SDS011;32542;52.832;13.816;2023-07-13T15:39:02;3.30;;;1.90;;
17253;SDS011;32542;52.832;13.816;2023-07-13T15:42:07;3.45;;;1.90;;
17253;SDS011;32542;52.832;13.816;2023-07-13T15:45:16;2.58;;;1.58;;
17253;SDS011;32542;52.832;13.816;2023-07-13T15:48:22;2.85;;;1.73;;
17253;SDS011;32542;52.832;13.816;2023-07-13T15:51:29;5.07;;;1.70;;
17253;SDS011;32542;52.832;13.816;2023-07-13T15:54:36;3.35;;;1.50;;
17253;SDS011;32542;52.832;13.816;2023-07-13T15:57:41;2.15;;;1.60;;
17253;SDS011;32542;52.832;13.816;2023-07-13T16:00:47;4.63;;;1.50;;
17253;SDS011;32542;52.832;13.816;2023-07-13T16:03:54;2.65;;;1.58;;
17253;SDS011;32542;52.832;13.816;2023-07-13T16:06:57;3.08;;;1.83;;
17253;SDS011;32542;52.832;13.816;2023-07-13T16:10:00;1.85;;;1.40;;
17253;SDS011;32542;52.832;13.816;2023-07-13T16:13:03;2.70;;;1.60;;
17253;SDS011;32542;52.832;13.816;2023-07-13T16:16:08;2.28;;;1.58;;
17253;SDS011;32542;52.832;13.816;2023-07-13T16:19:13;3.53;;;1.67;;
17253;SDS011;32542;52.832;13.816;2023-07-13T16:22:17;3.58;;;1.42;;
17253;SDS011;32542;52.832;13.816;2023-07-13T16:25:23;4.57;;;1.60;;
17253;SDS011;32542;52.832;13.816;2023-07-13T16:28:27;4.22;;;1.58;;
17253;SDS011;32542;52.832;13.816;2023-07-13T16:31:30;2.85;;;1.52;;
17253;SDS011;32542;52.832;13.816;2023-07-13T16:34:36;2.33;;;1.38;;
17253;SDS011;32542;52.832;13.816;2023-07-13T16:37:41;3.22;;;1.52;;
17253;SDS011;32542;52.832;13.816;2023-07-13T16:41:03;3.75;;;1.60;;
17253;SDS011;32542;52.832;13.816;2023-07-13T16:44:10;3.72;;;1.48;;
17253;SDS011;32542;52.832;13.816;2023-07-13T16:47:15;3.28;;;1.40;;
17253;SDS011;32542;52.832;13.816;2023-07-13T16:50:21;4.97;;;1.35;;
17253;SDS011;32542;52.832;13.816;2023-07-13T16:53:26;3.70;;;1.30;;
17253;SDS011;32542;52.832;13.816;2023-07-13T16:56:32;2.70;;;1.52;;
17253;SDS011;32542;52.832;13.816;2023-07-13T16:59:36;4.18;;;1.17;;
17253;SDS011;32542;52.832;13.816;2023-07-13T17:02:39;1.70;;;1.33;;
17253;SDS011;32542;52.832;13.816;2023-07-13T17:05:44;2.40;;;1.25;;
17253;SDS011;32542;52.832;13.816;2023-07-13T17:08:49;4.43;;;1.33;;
17253;SDS011;32542;52.832;13.816;2023-07-13T17:11:57;3.08;;;1.40;;
17253;SDS011;32542;52.832;13.816;2023-07-13T17:15:00;2.70;;;1.13;;
17253;SDS011;32542;52.832;13.816;2023-07-13T17:18:03;2.05;;;1.23;;
17253;SDS011;32542;52.832;13.816;2023-07-13T17:21:14;2.67;;;1.00;;
17253;SDS011;32542;52.832;13.816;2023-07-13T17:24:18;5.30;;;1.50;;
17253;SDS011;32542;52.832;13.816;2023-07-13T17:27:22;4.95;;;1.50;;
17253;SDS011;32542;52.832;13.816;2023-07-13T17:30:25;1.42;;;0.93;;
17253;SDS011;32542;52.832;13.816;2023-07-13T17:33:29;3.13;;;1.30;;
17253;SDS011;32542;52.832;13.816;2023-07-13T17:36:35;5.40;;;1.23;;
17253;SDS011;32542;52.832;13.816;2023-07-13T17:39:41;5.40;;;1.35;;
17253;SDS011;32542;52.832;13.816;2023-07-13T17:42:44;5.82;;;1.20;;
17253;SDS011;32542;52.832;13.816;2023-07-13T17:45:47;5.80;;;1.20;;
17253;SDS011;32542;52.832;13.816;2023-07-13T17:48:51;4.85;;;1.58;;
17253;SDS011;32542;52.832;13.816;2023-07-13T17:51:56;3.65;;;1.00;;
17253;SDS011;32542;52.832;13.816;2023-07-13T17:55:00;1.33;;;1.10;;
17253;SDS011;32542;52.832;13.816;2023-07-13T17:58:14;3.70;;;1.30;;
17253;SDS011;32542;52.832;13.816;2023-07-13T18:01:18;2.20;;;0.90;;
17253;SDS011;32542;52.832;13.816;2023-07-13T18:04:22;2.45;;;0.80;;
17253;SDS011;32542;52.832;13.816;2023-07-13T18:07:28;1.73;;;1.05;;
17253;SDS011;32542;52.832;13.816;2023-07-13T18:10:31;2.58;;;0.90;;
17253;SDS011;32542;52.832;13.816;2023-07-13T18:13:35;2.13;;;0.85;;
17253;SDS011;32542;52.832;13.816;2023-07-13T18:16:42;1.33;;;0.90;;
17253;SDS011;32542;52.832;13.816;2023-07-13T18:19:52;3.78;;;1.00;;
17253;SDS011;32542;52.832;13.816;2023-07-13T18:22:56;1.67;;;1.10;;
17253;SDS011;32542;52.832;13.816;2023-07-13T18:25:59;1.60;;;1.00;;